Time;durP1;ratioP1;P1;durP2;ratioP2;P2;SDS_P1;SDS_P2;PMS_P1;PMS_P2;Temp;Humidity;BMP_temperature;BMP_pressure;BME280_temperature;BME280_humidity;BME280_pressure;Samples;Min_cycle;Max_cycle;Signal;HPM_P1;HPM_P2
2022/08/11 00:02:31;;;;;;;14.43;4.13;;;;;;;19.06;65.87;94104.41;5066454;28;20032;-75
2022/08/11 00:05:02;;;;;;;7.82;4.80;;;;;;;19.08;65.91;94111.00;5066567;28;20051;-75
2022/08/11 00:07:28;;;;;;;6.40;4.20;;;;;;;19.08;65.72;94107.53;5066035;28;20092;-75
2022/08/11 00:09:55;;;;;;;5.30;4.35;;;;;;;19.07;65.83;94097.84;5066325;28;20303;-75
2022/08/11 00:12:20;;;;;;;9.48;4.20;;;;;;;19.11;65.43;94096.00;5066218;28;20210;-75
2022/08/11 00:14:55;;;;;;;5.85;4.28;;;;;;;19.15;65.33;94099.53;5065931;28;20024;-75
2022/08/11 00:17:26;;;;;;;6.90;4.40;;;;;;;19.16;65.41;94101.88;5065738;28;20048;-75
2022/08/11 00:20:05;;;;;;;9.32;3.85;;;;;;;19.02;65.65;94107.81;5064751;28;20071;-76
2022/08/11 00:22:31;;;;;;;7.18;4.00;;;;;;;19.02;65.91;94109.75;5065721;28;20025;-75
2022/08/11 00:24:59;;;;;;;5.25;4.03;;;;;;;19.00;66.07;94104.69;5065956;28;20032;-75
2022/08/11 00:27:34;;;;;;;6.93;4.82;;;;;;;18.97;66.13;94108.13;5066008;28;20218;-75
2022/08/11 00:30:00;;;;;;;6.68;4.60;;;;;;;18.96;66.13;94103.09;5065738;28;20055;-75
2022/08/11 00:32:27;;;;;;;7.50;4.72;;;;;;;18.95;66.48;94091.50;5065905;28;20017;-75
2022/08/11 00:34:54;;;;;;;8.32;4.13;;;;;;;18.95;66.05;94104.22;5065748;28;20021;-75
2022/08/11 00:37:21;;;;;;;11.73;4.68;;;;;;;18.93;66.45;94099.19;5064294;28;20025;-75
2022/08/11 00:39:50;;;;;;;11.02;3.90;;;;;;;18.96;66.06;94098.47;5065451;28;20025;-75
2022/08/11 00:43:14;;;;;;;5.70;4.63;;;;;;;18.96;66.21;94094.97;5065570;28;20017;-75
2022/08/11 00:46:02;;;;;;;6.32;4.20;;;;;;;18.93;66.46;94093.00;5054430;28;20037;-75
2022/08/11 00:48:38;;;;;;;7.78;4.07;;;;;;;18.93;66.40;94091.09;5065383;28;20017;-75
2022/08/11 00:51:35;;;;;;;5.88;4.30;;;;;;;18.96;66.25;94087.66;5065378;28;20021;-75
2022/08/11 00:54:01;;;;;;;6.35;4.50;;;;;;;18.98;66.18;94093.47;5065448;28;20094;-75
2022/08/11 00:56:44;;;;;;;6.00;4.28;;;;;;;18.95;66.35;94088.81;5065348;28;20036;-75
2022/08/11 00:59:22;;;;;;;7.53;4.30;;;;;;;18.94;66.17;94072.97;5065126;28;20025;-75
2022/08/11 01:01:58;;;;;;;6.25;4.13;;;;;;;18.96;66.21;94076.84;5065167;28;20028;-74
2022/08/11 01:05:14;;;;;;;6.57;4.50;;;;;;;18.99;66.17;94086.16;5065074;28;20049;-74
2022/08/11 01:07:52;;;;;;;13.25;4.82;;;;;;;18.96;66.24;94095.75;5065130;28;20033;-75
2022/08/11 01:11:00;;;;;;;7.43;4.63;;;;;;;18.98;66.11;94090.78;5063856;28;20219;-75
2022/08/11 01:14:04;;;;;;;7.70;4.90;;;;;;;18.95;66.11;94090.72;5065073;28;20013;-75
2022/08/11 01:16:50;;;;;;;8.27;4.70;;;;;;;18.91;66.37;94095.28;5064348;28;20045;-75
2022/08/11 01:19:37;;;;;;;6.85;5.03;;;;;;;18.92;66.32;94088.75;5064829;28;20059;-75
2022/08/11 01:22:21;;;;;;;12.60;4.53;;;;;;;18.92;65.95;94089.50;5064679;28;20028;-75
2022/08/11 01:25:05;;;;;;;7.93;4.45;;;;;;;18.92;65.98;94088.75;5064825;28;20071;-76
2022/08/11 01:27:53;;;;;;;6.55;4.40;;;;;;;18.90;66.28;94082.91;5064591;28;20024;-76
2022/08/11 01:30:38;;;;;;;6.03;4.05;;;;;;;18.92;66.08;94086.81;5064667;28;20036;-76
2022/08/11 01:33:18;;;;;;;6.60;4.45;;;;;;;18.91;66.44;94089.88;5064463;28;20334;-76
2022/08/11 01:36:21;;;;;;;10.60;4.93;;;;;;;18.90;66.39;94081.00;5064590;28;20029;-75
2022/08/11 01:38:47;;;;;;;;;;;;;;;18.90;66.52;94081.00;5064813;28;20040;-76
2022/08/11 01:44:57;;;;;;;8.00;4.40;;;;;;;18.90;66.37;94080.22;5064412;28;20067;-76
2022/08/11 01:47:50;;;;;;;5.47;4.05;;;;;;;18.88;66.42;94077.88;5064263;28;20104;-76
2022/08/11 01:50:20;;;;;;;;;;;;;;;18.87;66.50;94076.31;5064547;28;20028;-76
2022/08/11 01:52:57;;;;;;;7.70;4.95;;;;;;;18.84;66.56;94079.72;5064262;28;19905;-76
2022/08/11 01:55:41;;;;;;;9.75;4.80;;;;;;;18.86;66.59;94072.06;5064064;28;20433;-76
2022/08/11 01:58:13;;;;;;;7.40;4.40;;;;;;;18.82;66.77;94082.00;5064108;28;20200;-76
2022/08/11 02:00:59;;;;;;;7.90;5.10;;;;;;;18.82;66.69;94077.38;5064002;28;20311;-76
2022/08/11 02:03:38;;;;;;;10.02;4.80;;;;;;;18.84;66.78;94068.94;5062843;28;20031;-76
2022/08/11 02:09:45;;;;;;;6.53;4.65;;;;;;;18.87;66.55;94065.53;5056192;28;20031;-76
2022/08/11 02:12:45;;;;;;;7.65;4.78;;;;;;;18.82;66.64;94071.22;5063857;28;20044;-73
2022/08/11 02:15:40;;;;;;;7.47;4.07;;;;;;;18.75;66.36;94065.69;5063829;28;20027;-74
2022/08/11 02:18:17;;;;;;;6.32;4.68;;;;;;;18.65;66.71;94075.13;5061233;28;20045;-74
2022/08/11 02:23:43;;;;;;;7.38;4.80;;;;;;;18.55;66.93;94067.63;5063550;28;20028;-74
2022/08/11 02:26:17;;;;;;;6.72;5.47;;;;;;;18.54;66.74;94077.66;5063658;28;20246;-74
2022/08/11 02:29:19;;;;;;;8.95;4.68;;;;;;;18.50;66.90;94071.41;5063530;28;20028;-74
2022/08/11 02:35:22;;;;;;;6.53;4.50;;;;;;;18.47;66.73;94071.34;5063381;28;20394;-75
2022/08/11 02:37:50;;;;;;;8.32;5.20;;;;;;;18.41;67.11;94073.53;5063290;28;20025;-75
2022/08/11 02:40:47;;;;;;;7.72;5.03;;;;;;;18.41;67.03;94068.16;5063353;28;20029;-75
2022/08/11 02:43:40;;;;;;;5.93;4.60;;;;;;;18.38;66.95;94066.94;5063160;28;20055;-74
2022/08/11 02:46:30;;;;;;;5.85;4.63;;;;;;;18.39;66.80;94073.13;5063002;28;20031;-75
2022/08/11 02:52:13;;;;;;;7.43;4.63;;;;;;;18.29;67.39;94073.69;5063063;28;20167;-74
2022/08/11 02:55:02;;;;;;;10.63;5.65;;;;;;;18.24;67.82;94066.69;5063191;28;20352;-74
2022/08/11 02:57:33;;;;;;;9.50;4.90;;;;;;;18.24;67.89;94077.47;5063163;28;20025;-74
2022/08/11 03:00:12;;;;;;;6.40;4.72;;;;;;;18.21;68.01;94064.69;5063115;28;20048;-74
2022/08/11 03:02:50;;;;;;;6.32;4.50;;;;;;;18.20;67.95;94063.91;5063037;28;20315;-74
2022/08/11 03:05:25;;;;;;;5.68;4.35;;;;;;;18.26;67.96;94075.19;5062925;28;20264;-75
2022/08/11 03:08:09;;;;;;;6.57;4.28;;;;;;;18.23;67.84;94073.97;5062752;28;20323;-74
2022/08/11 03:17:28;;;;;;;7.88;4.13;;;;;;;18.23;67.52;94076.66;5062359;28;20078;-74
2022/08/11 03:20:28;;;;;;;6.43;4.25;;;;;;;18.23;67.75;94076.66;5062532;28;20041;-74
2022/08/11 03:23:16;;;;;;;7.75;4.15;;;;;;;18.22;67.92;94085.91;5062724;28;20039;-74
2022/08/11 03:26:08;;;;;;;5.97;4.28;;;;;;;18.24;68.01;94080.94;5062527;28;20020;-74
2022/08/11 03:28:52;;;;;;;6.03;4.20;;;;;;;18.28;67.73;94075.63;5062420;28;20338;-74
2022/08/11 03:31:23;;;;;;;7.25;4.55;;;;;;;18.29;67.09;94074.47;5062570;28;20021;-74
2022/08/11 03:34:01;;;;;;;6.20;4.10;;;;;;;18.33;66.48;94069.16;5062683;28;20029;-74
2022/08/11 03:37:05;;;;;;;5.85;3.83;;;;;;;18.33;66.43;94082.63;5062388;28;20219;-74
2022/08/11 03:39:46;;;;;;;11.27;4.13;;;;;;;18.33;66.37;94077.25;5061623;28;20024;-74
2022/08/11 03:42:11;;;;;;;8.82;4.65;;;;;;;18.32;66.65;94070.28;5062464;28;20028;-75
2022/08/11 03:44:59;;;;;;;8.88;4.38;;;;;;;18.33;66.70;94071.84;5062478;28;20020;-75
2022/08/11 03:47:47;;;;;;;7.22;4.80;;;;;;;18.35;66.66;94075.75;5062528;28;20088;-75
2022/08/11 03:50:56;;;;;;;7.25;3.92;;;;;;;18.35;66.46;94077.66;5062472;28;20104;-75
2022/08/11 03:53:31;;;;;;;8.13;4.38;;;;;;;18.34;66.67;94076.91;5062471;28;20021;-75
2022/08/11 03:56:34;;;;;;;7.10;4.50;;;;;;;18.35;66.97;94075.75;5062373;28;20020;-75
2022/08/11 03:59:23;;;;;;;6.78;4.63;;;;;;;18.31;66.90;94080.28;5062448;28;20029;-75
2022/08/11 04:02:07;;;;;;;6.25;4.15;;;;;;;18.27;67.33;94084.06;5062111;28;20322;-75
2022/08/11 04:05:10;;;;;;;5.80;4.18;;;;;;;18.28;67.37;94080.22;5062221;28;20333;-75
2022/08/11 04:07:54;;;;;;;5.88;4.13;;;;;;;18.31;67.71;94093.78;5062516;28;20032;-75
2022/08/11 04:10:35;;;;;;;5.72;4.13;;;;;;;18.32;67.62;94086.47;5062194;28;20016;-75
2022/08/11 04:13:38;;;;;;;5.95;3.95;;;;;;;18.30;68.11;94089.53;5062463;28;20235;-75
2022/08/11 04:16:22;;;;;;;;;;;;;;;18.35;68.03;94088.47;5062651;28;20247;-75
2022/08/11 04:18:51;;;;;;;5.90;4.22;;;;;;;18.34;67.97;94085.00;5062147;28;20240;-75
2022/08/11 04:21:25;;;;;;;5.70;3.88;;;;;;;18.37;68.20;94086.19;5061749;28;20148;-75
2022/08/11 04:24:12;;;;;;;6.30;4.55;;;;;;;18.44;68.36;94089.03;5061953;28;20193;-75
2022/08/11 04:26:40;;;;;;;6.45;4.60;;;;;;;18.52;68.43;94089.94;5062008;28;20276;-75
2022/08/11 04:29:43;;;;;;;6.72;4.55;;;;;;;18.62;68.08;94090.16;5061982;28;20016;-75
2022/08/11 04:32:18;;;;;;;7.28;4.53;;;;;;;18.70;67.77;94087.56;5062033;28;20028;-75
2022/08/11 04:34:58;;;;;;;7.30;4.43;;;;;;;18.77;67.76;94095.78;5062046;28;20035;-75
2022/08/11 04:37:42;;;;;;;8.23;5.22;;;;;;;18.87;67.40;94089.84;5061859;28;20016;-75
2022/08/11 04:40:26;;;;;;;11.02;4.53;;;;;;;18.94;67.22;94086.47;5062236;28;20319;-75
2022/08/11 04:43:27;;;;;;;9.18;4.95;;;;;;;18.97;66.93;94089.22;5065290;28;20223;-75
2022/08/11 04:46:30;;;;;;;8.23;4.93;;;;;;;19.04;67.21;94086.63;5062263;28;20028;-76
2022/08/11 05:02:05;;;;;;;11.18;6.05;;;;;;;19.01;67.27;94095.47;5065131;28;20035;-75
2022/08/11 05:07:47;;;;;;;11.23;7.28;;;;;;;19.04;67.59;94097.44;5065335;28;20059;-74
2022/08/11 05:10:42;;;;;;;17.40;6.93;;;;;;;19.09;67.70;94096.38;5064988;28;20028;-74
2022/08/11 05:36:11;;;;;;;9.45;5.78;;;;;;;19.34;66.26;94091.34;5064419;28;20036;-74
2022/08/11 05:58:02;;;;;;;12.35;6.82;;;;;;;19.66;64.54;94096.44;5062921;28;20307;-85
2022/08/11 06:00:28;;;;;;;11.70;7.60;;;;;;;19.67;65.08;94089.91;5063295;28;20037;-84
2022/08/11 06:03:02;;;;;;;10.43;6.85;;;;;;;19.65;64.85;94092.19;5064402;28;20235;-84
2022/08/11 06:05:36;;;;;;;15.40;6.65;;;;;;;19.69;64.58;94095.72;5064228;28;20386;-84
2022/08/11 06:08:04;;;;;;;13.40;6.30;;;;;;;19.67;64.84;94098.00;5064028;28;20075;-84
2022/08/11 06:10:36;;;;;;;10.65;5.68;;;;;;;19.72;64.72;94105.06;5064139;28;20044;-85
2022/08/11 06:13:04;;;;;;;12.85;6.47;;;;;;;19.76;64.29;94092.38;5063941;28;20384;-85
2022/08/11 06:15:32;;;;;;;9.93;5.80;;;;;;;19.82;64.61;94091.69;5063821;28;20045;-85
2022/08/11 06:18:00;;;;;;;8.45;5.65;;;;;;;19.78;64.88;94082.75;5063939;28;20045;-85
2022/08/11 06:20:31;;;;;;;16.50;6.10;;;;;;;19.88;63.36;94080.56;5064000;28;20021;-85
2022/08/11 06:23:08;;;;;;;15.43;5.33;;;;;;;19.96;63.02;94082.19;5096122;28;20039;-85
2022/08/11 06:25:35;;;;;;;7.93;5.63;;;;;;;20.01;63.51;94090.00;5063959;28;20263;-85
2022/08/11 06:28:06;;;;;;;14.50;5.30;;;;;;;20.10;63.49;94085.09;5063868;28;20223;-85
2022/08/11 06:30:41;;;;;;;12.23;5.78;;;;;;;20.23;61.68;94085.63;5062441;28;20036;-85
2022/08/11 06:33:09;;;;;;;8.82;5.53;;;;;;;20.27;60.96;94086.44;5063654;28;20029;-84
2022/08/11 06:35:44;;;;;;;9.98;4.55;;;;;;;20.33;59.38;94084.97;5063722;28;20366;-85
2022/08/11 06:38:23;;;;;;;7.57;4.68;;;;;;;20.36;58.96;94086.94;5063332;28;20021;-84
2022/08/11 06:44:18;;;;;;;14.32;5.43;;;;;;;20.50;60.05;94075.50;5063525;28;20046;-85
2022/08/11 06:46:49;;;;;;;5.88;4.05;;;;;;;20.60;57.78;94084.91;5063285;28;20041;-85
2022/08/11 06:52:04;;;;;;;10.85;5.03;;;;;;;20.71;57.58;94082.31;5063095;28;20668;-85
2022/08/11 06:54:32;;;;;;;8.90;5.00;;;;;;;20.78;57.83;94083.16;5063126;28;20040;-85
2022/08/11 07:00:26;;;;;;;5.05;3.10;;;;;;;20.92;53.84;94087.91;5063251;28;20028;-84
2022/08/11 07:02:47;;;;;;;6.15;3.50;;;;;;;21.03;54.52;94086.09;5062295;28;20024;-85
2022/08/11 07:05:20;;;;;;;5.55;4.00;;;;;;;21.13;54.41;94086.56;5063231;28;20029;-84
2022/08/11 07:16:50;;;;;;;7.65;3.25;;;;;;;21.51;53.30;94100.81;5062609;28;20056;-83
2022/08/11 07:31:05;;;;;;;6.68;4.32;;;;;;;22.22;51.90;94086.88;5065100;28;20032;-91
2022/08/11 07:33:45;;;;;;;7.40;3.70;;;;;;;22.36;51.54;94092.41;5063735;28;20033;-92
2022/08/11 07:36:11;;;;;;;5.55;3.60;;;;;;;22.52;50.95;94085.88;5063604;28;20021;-92
2022/08/11 07:38:44;;;;;;;6.05;3.83;;;;;;;22.62;50.84;94087.84;5064245;28;20017;-90
2022/08/11 07:41:15;;;;;;;4.95;3.25;;;;;;;22.66;50.01;94091.34;5064844;28;20032;-89
2022/08/11 07:43:42;;;;;;;6.88;3.25;;;;;;;22.67;50.09;94084.72;5064455;28;20029;-90
2022/08/11 07:54:27;;;;;;;8.30;3.42;;;;;;;22.77;48.58;94083.19;5063116;28;20055;-89
2022/08/11 07:56:54;;;;;;;6.03;3.40;;;;;;;22.75;47.45;94089.00;5062822;28;20062;-88
2022/08/11 08:18:37;;;;;;;6.90;3.75;;;;;;;23.01;47.28;94077.06;5066447;28;20031;-82
2022/08/11 08:21:11;;;;;;;7.53;3.90;;;;;;;23.03;47.67;94080.16;5066179;28;20025;-89
2022/08/11 08:23:45;;;;;;;6.88;3.20;;;;;;;23.08;47.03;94075.50;5066884;28;20017;-84
2022/08/11 08:32:01;;;;;;;8.57;3.58;;;;;;;23.33;46.92;94070.84;5066080;28;20151;-90
2022/08/11 08:34:27;;;;;;;5.43;3.50;;;;;;;23.33;44.91;94073.56;5066426;28;20180;-85
2022/08/11 08:36:52;;;;;;;4.47;3.35;;;;;;;23.31;45.57;94065.03;5064865;28;20066;-89
2022/08/11 08:39:20;;;;;;;5.55;3.45;;;;;;;23.25;45.52;94055.72;5066537;28;20084;-87
2022/08/11 08:41:51;;;;;;;12.00;3.58;;;;;;;23.16;45.98;94055.31;5064907;28;20028;-87
2022/08/11 08:44:19;;;;;;;5.15;3.47;;;;;;;23.27;46.14;94064.25;5065693;28;20072;-87
2022/08/11 08:46:48;;;;;;;3.78;2.70;;;;;;;23.46;44.12;94067.75;5066659;28;20021;-92
2022/08/11 08:49:18;;;;;;;6.35;3.17;;;;;;;23.51;43.86;94057.25;5066099;28;20437;-84
2022/08/11 08:51:48;;;;;;;7.13;3.40;;;;;;;23.62;44.58;94054.50;5064966;28;20220;-88
2022/08/11 08:54:18;;;;;;;6.28;3.03;;;;;;;23.64;45.44;94061.09;5066063;28;20345;-88
2022/08/11 08:56:45;;;;;;;6.50;3.50;;;;;;;23.78;44.49;94060.31;5066668;28;20028;-87
2022/08/11 08:59:13;;;;;;;4.93;2.47;;;;;;;23.82;43.34;94063.81;5066223;28;20041;-85
2022/08/11 09:01:46;;;;;;;5.60;3.55;;;;;;;23.89;43.59;94056.81;5065956;28;20099;-85
2022/08/11 09:04:13;;;;;;;4.90;3.25;;;;;;;23.92;43.70;94048.63;5065555;28;20021;-79
2022/08/11 09:06:42;;;;;;;5.82;3.15;;;;;;;23.99;44.59;94048.59;5065452;28;20033;-82
2022/08/11 09:09:08;;;;;;;5.78;2.97;;;;;;;24.13;43.23;94055.94;5065370;28;20044;-83
2022/08/11 09:11:53;;;;;;;4.88;3.15;;;;;;;24.27;43.17;94046.19;5065494;28;20084;-93
2022/08/11 09:14:59;;;;;;;4.30;3.08;;;;;;;24.40;43.21;94060.88;5064302;28;20082;-88
2022/08/11 09:17:12;;;;;;;8.68;3.58;;;;;;;24.31;43.86;94049.66;5066899;28;20068;-90
2022/08/11 09:19:37;;;;;;;5.63;3.13;;;;;;;24.22;43.17;94050.06;5065101;28;20032;-92
2022/08/11 09:27:43;;;;;;;8.07;3.17;;;;;;;24.24;41.90;94042.28;5065018;28;20067;-89
2022/08/11 09:30:10;;;;;;;9.35;3.55;;;;;;;24.23;42.93;94043.47;5065022;28;20315;-89
2022/08/11 09:32:38;;;;;;;7.85;3.65;;;;;;;24.26;42.97;94047.34;5065136;28;20025;-89
2022/08/11 09:35:04;;;;;;;5.43;3.33;;;;;;;24.20;42.86;94041.50;5064946;28;20035;-89
2022/08/11 09:40:30;;;;;;;7.43;2.58;;;;;;;24.30;42.77;94031.75;5066123;28;20027;-88
2022/08/11 09:45:50;;;;;;;6.05;3.08;;;;;;;24.28;42.68;94036.81;5065054;28;20032;-88
2022/08/11 09:48:19;;;;;;;5.38;2.95;;;;;;;24.32;42.12;94034.84;5064611;28;20028;-89
2022/08/11 09:50:50;;;;;;;3.88;2.63;;;;;;;24.31;42.13;94027.88;5064564;28;20024;-89
2022/08/11 09:53:18;;;;;;;6.93;3.10;;;;;;;24.36;43.31;94030.16;5064617;28;20021;-90
2022/08/11 09:55:45;;;;;;;5.95;3.50;;;;;;;24.40;42.61;94017.31;5064717;28;20067;-89
2022/08/11 09:58:12;;;;;;;4.18;2.58;;;;;;;24.51;41.91;94018.06;5064599;28;20024;-90
2022/08/11 10:00:39;;;;;;;5.75;2.90;;;;;;;24.67;41.13;94019.50;5064832;28;20047;-90
2022/08/11 10:03:21;;;;;;;19.08;3.58;;;;;;;24.69;41.11;94015.22;5063709;28;20185;-89
2022/08/11 10:08:37;;;;;;;6.90;3.42;;;;;;;24.81;39.75;94019.41;5064578;28;20110;-90
2022/08/11 10:11:08;;;;;;;5.20;2.85;;;;;;;24.72;40.49;94010.91;5063327;28;20480;-90
2022/08/11 10:15:32;;;;;;;6.30;3.17;;;;;;;24.80;41.29;94012.44;5064478;28;20044;-90
2022/08/11 10:16:28;;;;;;;3.95;2.83;;;;;;;24.81;41.99;94003.06;5063792;28;20041;-89
2022/08/11 10:18:54;;;;;;;4.50;3.20;;;;;;;24.82;42.63;94005.38;5062915;28;20104;-90
2022/08/11 10:21:28;;;;;;;6.05;3.45;;;;;;;24.92;42.50;94009.22;5064075;28;20025;-89
2022/08/11 10:26:53;;;;;;;7.78;2.63;;;;;;;24.89;40.88;94009.22;5064288;28;20104;-88
2022/08/11 10:35:07;;;;;;;6.00;3.60;;;;;;;25.05;40.66;94016.91;5064028;28;20412;-89
2022/08/11 10:37:35;;;;;;;5.22;3.08;;;;;;;25.03;40.73;94003.66;5063257;28;20105;-89
2022/08/11 10:40:04;;;;;;;11.57;3.15;;;;;;;25.14;40.19;94009.06;5063401;28;20036;-90
2022/08/11 10:48:00;;;;;;;12.82;4.22;;;;;;;25.35;40.82;93997.97;5063731;28;20246;-89
2022/08/11 10:58:58;;;;;;;9.23;3.65;;;;;;;25.09;40.00;94001.28;5061412;28;20094;-85
2022/08/11 11:01:31;;;;;;;5.30;3.40;;;;;;;25.06;40.17;93991.22;5061547;28;20033;-83
2022/08/11 11:04:03;;;;;;;16.13;3.40;;;;;;;24.98;40.52;93995.94;5063026;28;20039;-81
2022/08/11 11:06:45;;;;;;;6.03;3.13;;;;;;;24.94;40.47;93985.06;5062897;28;20021;-82
2022/08/11 11:09:22;;;;;;;6.63;3.42;;;;;;;24.97;39.84;93981.53;5063341;28;20017;-89
2022/08/11 11:17:56;;;;;;;5.80;3.53;;;;;;;24.79;39.11;93980.88;5063268;28;20067;-88
2022/08/11 11:20:25;;;;;;;7.28;3.03;;;;;;;24.92;40.29;93981.97;5061947;28;20063;-86
2022/08/11 11:22:56;;;;;;;13.25;5.03;;;;;;;25.04;39.55;93986.16;5062849;28;20031;-87
2022/08/11 11:25:43;;;;;;;7.63;3.00;;;;;;;25.11;39.07;93990.75;5061670;28;20037;-88
2022/08/11 11:28:33;;;;;;;6.72;2.88;;;;;;;25.15;38.75;93988.78;5063190;28;20414;-89
2022/08/11 11:31:02;;;;;;;6.22;2.95;;;;;;;25.24;39.36;93978.22;5063193;28;20095;-90
2022/08/11 11:33:48;;;;;;;5.28;3.03;;;;;;;25.17;39.54;93991.88;5062846;28;20028;-85
2022/08/11 11:36:52;;;;;;;4.72;3.20;;;;;;;25.11;40.46;93988.03;5062933;28;20056;-90
2022/08/11 11:39:24;;;;;;;10.10;3.08;;;;;;;25.12;39.51;93995.81;5024780;28;20057;-83
2022/08/11 11:41:53;;;;;;;5.07;3.10;;;;;;;25.17;38.71;93987.19;5059608;28;20028;-84
2022/08/11 11:44:21;;;;;;;10.57;2.70;;;;;;;25.11;39.23;93977.13;5062860;28;20017;-86
2022/08/11 11:46:48;;;;;;;5.35;2.92;;;;;;;25.14;39.42;93987.25;5062679;28;20013;-84
2022/08/11 11:49:17;;;;;;;5.95;2.55;;;;;;;25.19;39.58;93973.16;5063419;28;20020;-87
2022/08/11 11:51:45;;;;;;;5.20;3.03;;;;;;;25.28;38.72;93969.97;5068325;28;20047;-90
2022/08/11 11:54:14;;;;;;;7.97;3.15;;;;;;;25.42;39.03;93972.56;5067724;28;20033;-85
2022/08/11 11:56:41;;;;;;;6.10;3.20;;;;;;;25.52;36.82;93968.94;5067458;28;20028;-89
2022/08/11 12:01:52;;;;;;;7.90;3.42;;;;;;;25.84;36.41;93965.09;5066698;28;20066;-77
2022/08/11 12:04:20;;;;;;;6.00;3.42;;;;;;;26.02;35.31;93973.88;5066472;28;20025;-77
2022/08/11 12:06:46;;;;;;;4.68;2.70;;;;;;;26.10;35.29;93962.88;5066506;28;20096;-78
2022/08/11 12:09:17;;;;;;;5.80;2.55;;;;;;;26.18;36.30;93959.63;5066692;28;20028;-77
2022/08/11 12:14:28;;;;;;;9.40;3.10;;;;;;;26.40;36.86;93954.66;5066216;28;20031;-76
2022/08/11 12:16:56;;;;;;;17.58;5.20;;;;;;;26.49;37.31;93940.47;5065984;28;20040;-77
2022/08/11 12:19:27;;;;;;;7.05;3.30;;;;;;;26.58;35.94;93943.50;5066227;28;20184;-77
2022/08/11 12:27:25;;;;;;;6.32;2.97;;;;;;;26.85;34.75;93942.69;5066050;28;20044;-76
2022/08/11 12:29:56;;;;;;;5.72;3.63;;;;;;;27.01;36.22;93940.06;5065955;28;20323;-77
2022/08/11 12:32:26;;;;;;;5.60;3.10;;;;;;;27.18;37.46;93945.66;5065733;28;20020;-75
2022/08/11 12:34:52;;;;;;;6.85;3.88;;;;;;;27.48;37.74;93943.97;5065609;28;20020;-77
2022/08/11 12:37:22;;;;;;;4.70;2.72;;;;;;;27.66;36.85;93941.69;5065611;28;20069;-76
2022/08/11 12:45:29;;;;;;;5.97;3.55;;;;;;;27.87;36.37;93953.44;5065728;28;20067;-76
2022/08/11 12:53:42;;;;;;;15.63;3.45;;;;;;;27.79;36.69;93941.81;5065389;28;20056;-76
2022/08/11 13:07:11;;;;;;;14.50;3.60;;;;;;;27.11;37.63;93973.13;5065482;28;20040;-76
2022/08/11 13:09:37;;;;;;;4.43;3.22;;;;;;;26.89;37.83;93967.22;5065077;28;20040;-76
2022/08/11 13:14:46;;;;;;;5.45;2.70;;;;;;;26.80;38.58;93973.22;5065032;28;20064;-77
2022/08/11 13:17:21;;;;;;;5.30;2.90;;;;;;;26.70;38.64;93965.97;5065031;28;20041;-77
2022/08/11 13:19:48;;;;;;;7.85;2.80;;;;;;;26.67;38.64;93969.53;5065168;28;20101;-76
2022/08/11 13:22:18;;;;;;;8.60;2.25;;;;;;;26.70;38.98;93965.97;5065163;28;20028;-77
2022/08/11 13:24:45;;;;;;;5.72;2.92;;;;;;;26.73;38.28;93974.13;5065078;28;20017;-76
2022/08/11 13:27:13;;;;;;;3.58;2.60;;;;;;;26.78;38.55;93967.41;5065053;28;20055;-76
2022/08/11 13:29:41;;;;;;;3.90;2.53;;;;;;;26.78;38.93;93972.88;5064855;28;20215;-77
2022/08/11 13:32:08;;;;;;;5.15;2.58;;;;;;;26.88;38.79;93969.19;5064978;28;20211;-77
2022/08/11 13:34:40;;;;;;;5.22;2.55;;;;;;;26.96;39.10;93967.13;5065703;28;20067;-90
2022/08/11 13:37:07;;;;;;;3.67;2.58;;;;;;;27.27;38.91;93970.53;5066916;28;20029;-92
2022/08/11 13:39:35;;;;;;;8.57;2.30;;;;;;;27.58;37.07;93956.72;5067174;28;20025;-92
2022/08/11 13:42:03;;;;;;;5.03;2.42;;;;;;;27.98;35.69;93956.72;5066929;28;20028;-92
2022/08/11 13:44:32;;;;;;;5.38;2.60;;;;;;;28.08;35.97;93955.72;5067148;28;20017;-92
2022/08/11 13:47:03;;;;;;;9.60;2.60;;;;;;;28.46;36.42;93957.28;5066431;28;20044;-90
2022/08/11 13:49:34;;;;;;;4.57;2.30;;;;;;;28.95;35.65;93949.88;5066217;28;20212;-89
2022/08/11 13:52:00;;;;;;;;;;;;;;;29.58;34.26;93945.19;5065724;28;20047;-89
2022/08/11 13:54:32;;;;;;;7.50;2.67;;;;;;;30.26;32.28;93942.53;5065647;28;20199;-90
2022/08/11 13:57:03;;;;;;;;;;;;;;;30.82;30.48;93942.03;5064632;28;20029;-85
2022/08/11 13:59:29;;;;;;;12.13;2.78;;;;;;;31.45;29.49;93939.63;5064950;28;20198;-88
2022/08/11 14:02:03;;;;;;;4.80;2.55;;;;;;;32.16;28.56;93931.59;5065208;28;20055;-92
2022/08/11 14:04:38;;;;;;;6.10;2.30;;;;;;;32.80;27.77;93927.63;5064814;28;20311;-87
2022/08/11 14:07:06;;;;;;;4.55;2.40;;;;;;;33.61;27.15;93932.22;5064331;28;20028;-88
2022/08/11 14:09:36;;;;;;;4.65;2.40;;;;;;;34.28;25.20;93933.28;5064684;28;20107;-86
2022/08/11 14:15:18;;;;;;;3.53;2.10;;;;;;;35.58;23.21;93919.53;5064159;28;20075;-89
2022/08/11 14:17:50;;;;;;;9.00;2.00;;;;;;;35.86;22.84;93918.09;5064833;28;20219;-92
2022/08/11 14:20:19;;;;;;;3.65;2.03;;;;;;;36.11;22.47;93929.91;5064773;28;20028;-89
2022/08/11 14:22:46;;;;;;;4.40;2.05;;;;;;;36.48;21.88;93924.75;5064280;28;20024;-88
2022/08/11 14:25:15;;;;;;;5.65;1.98;;;;;;;36.98;20.87;93923.22;5064537;28;20021;-87
2022/08/11 14:27:43;;;;;;;4.57;2.28;;;;;;;37.50;20.26;93918.63;5063734;28;20013;-87
2022/08/11 14:30:53;;;;;;;4.13;1.98;;;;;;;38.08;19.25;93926.38;5063774;28;20020;-85
2022/08/11 14:32:56;;;;;;;3.42;1.92;;;;;;;38.65;18.41;93922.06;5063422;28;20465;-85
2022/08/11 14:35:22;;;;;;;4.57;1.80;;;;;;;38.55;18.28;93920.72;5063875;28;20371;-85
2022/08/11 14:37:48;;;;;;;3.72;2.08;;;;;;;38.82;18.45;93922.22;5063472;28;20029;-85
2022/08/11 14:47:03;;;;;;;3.45;2.10;;;;;;;39.20;18.71;93918.13;5063557;28;20021;-89
2022/08/11 14:48:29;;;;;;;3.88;1.73;;;;;;;39.97;16.86;93915.44;5064111;28;20059;-91
2022/08/11 14:50:55;;;;;;;3.45;1.80;;;;;;;39.50;17.28;93906.66;5063745;28;20029;-88
2022/08/11 14:53:22;;;;;;;5.70;2.72;;;;;;;39.08;18.69;93910.97;5062384;28;20162;-88
2022/08/11 14:58:32;;;;;;;3.08;1.92;;;;;;;39.54;17.58;93909.22;5063913;28;20028;-91
2022/08/11 15:01:00;;;;;;;9.13;2.95;;;;;;;39.99;16.94;93900.97;5062274;28;20017;-90
2022/08/11 15:03:28;;;;;;;2.75;1.90;;;;;;;40.38;16.83;93906.63;5062400;28;20056;-91
2022/08/11 15:05:56;;;;;;;2.90;1.92;;;;;;;40.47;15.92;93900.78;5062437;28;20045;-91
2022/08/11 15:08:53;;;;;;;7.32;1.92;;;;;;;40.06;16.35;93901.25;5062093;28;20017;-86
2022/08/11 15:12:07;;;;;;;4.85;2.17;;;;;;;39.28;17.83;93907.28;5062953;28;20212;-86
2022/08/11 15:13:58;;;;;;;4.53;2.08;;;;;;;38.32;18.78;93898.25;5062932;28;20103;-85
2022/08/11 15:19:11;;;;;;;4.28;2.55;;;;;;;37.08;20.16;93903.16;5063098;28;20024;-85
2022/08/11 15:24:22;;;;;;;8.05;2.33;;;;;;;35.63;22.07;93897.47;5062490;28;20114;-88
2022/08/11 15:37:57;;;;;;;4.28;2.55;;;;;;;35.40;23.31;93884.41;5062880;28;20055;-88
2022/08/11 15:46:13;;;;;;;2.90;1.92;;;;;;;34.47;23.67;93881.41;5060552;28;20063;-83
2022/08/11 15:49:01;;;;;;;4.07;2.63;;;;;;;33.81;24.43;93888.31;5060547;28;20021;-76
2022/08/11 15:51:34;;;;;;;4.78;2.10;;;;;;;33.41;24.71;93885.72;5061317;28;20220;-78
2022/08/11 15:54:07;;;;;;;5.03;2.35;;;;;;;32.86;25.68;93881.63;5062585;28;20200;-78
2022/08/11 15:56:36;;;;;;;4.82;2.65;;;;;;;32.51;26.02;93886.56;5061310;28;20028;-78
2022/08/11 16:04:38;;;;;;;10.00;2.60;;;;;;;30.90;27.07;93896.59;5062557;28;20031;-83
2022/08/11 16:07:13;;;;;;;4.75;2.63;;;;;;;30.16;28.27;93892.94;5062238;28;20074;-78
2022/08/11 16:09:49;;;;;;;3.60;2.10;;;;;;;29.93;28.90;93896.00;5061545;28;20371;-79
2022/08/11 16:12:22;;;;;;;6.85;2.50;;;;;;;29.71;29.20;93904.06;5062219;28;20025;-79
2022/08/11 16:17:43;;;;;;;4.43;2.47;;;;;;;29.04;30.34;93899.91;5062148;28;20074;-76
2022/08/11 16:20:10;;;;;;;5.97;2.50;;;;;;;28.72;31.11;93892.47;5062205;28;20097;-79
2022/08/11 16:22:42;;;;;;;8.98;3.30;;;;;;;28.50;31.29;93906.69;5061975;28;20021;-78
2022/08/11 16:25:14;;;;;;;4.28;2.42;;;;;;;28.15;31.95;93895.31;5062178;28;20035;-78
2022/08/11 16:27:46;;;;;;;3.75;2.40;;;;;;;28.01;32.55;93895.63;5062253;28;20048;-76
2022/08/11 16:30:13;;;;;;;7.28;2.65;;;;;;;27.91;32.80;93905.59;5061901;28;20024;-76
2022/08/11 16:32:42;;;;;;;5.88;2.35;;;;;;;27.77;32.94;93909.38;5061767;28;20024;-76
2022/08/11 16:40:49;;;;;;;7.53;2.13;;;;;;;27.24;33.89;93911.19;5064312;28;20094;-76
2022/08/11 16:48:53;;;;;;;5.43;2.53;;;;;;;26.72;34.66;93915.16;5063675;28;20314;-76